Bachir Chihani — 7TJA — position and weather

sailwx.info

Track history (hours):
 
Tides and Currents Weather Stations Pressure Air Temp Water Temp Dewpoint Dewpoint Depression Visibility Wind Speed Wind Dir Waves Ship Positions

Bachir Chihani

Last reported at 2014-Nov-24 20:25 UTC. Time now 2014-Nov-28 12:17 UTC.
Position N 37°18' E 008°19'.

Length 280 m; draft 9.6 m.

Type: Ship (hazmat cat C). MMSI: 605106010.

Date/timePositionNaut miles runAvg speedWind from/ knotsBaromVisibWave heightAir tempDewpointWater temp
2014-Nov-24 20:25N 37°18' E 008°19'25711.8
2014-Nov-23 22:32N 36°38' E 013°37'1412.3
2014-Nov-23 21:25N 36°35' E 013°54'2312.3
2014-Nov-23 19:34N 36°31' E 014°21'45612.0
2014-Nov-22 05:33N 36°38' E 023°50'1313.3
2014-Nov-22 04:33N 36°48' E 024°01'1312.9
2014-Nov-22 03:34N 36°55' E 024°14'1312.9
2014-Nov-22 02:33N 37°02' E 024°28'1313.2
2014-Nov-22 01:33N 37°08' E 024°43'1312.6
2014-Nov-22 00:33N 37°14' E 024°57'1312.6
2014-Nov-21 23:33N 37°17' E 025°12'1312.6
2014-Nov-21 22:33N 37°19' E 025°28'1212.5
2014-Nov-21 21:33N 37°21' E 025°43'1512.6
2014-Nov-21 20:20N 37°36' E 025°44'1012.7
2014-Nov-21 19:33N 37°46' E 025°44'11212.4
2014-Nov-21 10:33N 39°38' E 025°45'1312.6
2014-Nov-21 09:32N 39°51' E 025°46'  
2014-Nov-18 19:13N 38°49' E 025°44'811.2
2014-Nov-18 18:30N 38°41' E 025°44'1111.5
2014-Nov-18 17:34N 38°31' E 025°43'1211.7
2014-Nov-18 16:33N 38°19' E 025°43'1211.9
2014-Nov-18 15:33N 38°07' E 025°43'1211.9
2014-Nov-18 14:33N 37°55' E 025°44'1110.8
2014-Nov-18 13:33N 37°44' E 025°44'1111.1
2014-Nov-18 12:31N 37°33' E 025°43'1111.3
2014-Nov-18 11:34N 37°22' E 025°43'1110.7
2014-Nov-18 10:33N 37°19' E 025°30'1111.3
2014-Nov-18 09:33N 37°18' E 025°16'1111.2
2014-Nov-18 08:33N 37°16' E 025°02'1111.4
2014-Nov-18 07:34N 37°12' E 024°49'1211.6
2014-Nov-18 06:33N 37°05' E 024°36'1111.5
2014-Nov-18 05:34N 36°60' E 024°24'1211.6
2014-Nov-18 04:33N 36°54' E 024°11'1211.8
2014-Nov-18 03:33N 36°46' E 023°60'1111.2
2014-Nov-18 02:33N 36°38' E 023°50'1110.7
2014-Nov-18 01:33N 36°30' E 023°41'1110.7
2014-Nov-18 00:33N 36°22' E 023°32'  
Track history (hours):
 
Tides and Currents Weather Stations Pressure Air Temp Water Temp Dewpoint Dewpoint Depression Visibility Wind Speed Wind Dir Waves Ship Positions

Bachir Chihani

Last reported at 2014-Nov-24 20:25 UTC. Time now 2014-Nov-28 12:17 UTC.
Position N 37°18' E 008°19'.

Length 280 m; draft 9.6 m.

Type: Ship (hazmat cat C). MMSI: 605106010.

Date/timePositionNaut miles runAvg speedWind from/ knotsBaromVisibWave heightAir tempDewpointWater temp
2014-Nov-24 20:25N 37°18' E 008°19'25711.8
2014-Nov-23 22:32N 36°38' E 013°37'1412.3
2014-Nov-23 21:25N 36°35' E 013°54'2312.3
2014-Nov-23 19:34N 36°31' E 014°21'45612.0
2014-Nov-22 05:33N 36°38' E 023°50'1313.3
2014-Nov-22 04:33N 36°48' E 024°01'1312.9
2014-Nov-22 03:34N 36°55' E 024°14'1312.9
2014-Nov-22 02:33N 37°02' E 024°28'1313.2
2014-Nov-22 01:33N 37°08' E 024°43'1312.6
2014-Nov-22 00:33N 37°14' E 024°57'1312.6
2014-Nov-21 23:33N 37°17' E 025°12'1312.6
2014-Nov-21 22:33N 37°19' E 025°28'1212.5
2014-Nov-21 21:33N 37°21' E 025°43'1512.6
2014-Nov-21 20:20N 37°36' E 025°44'1012.7
2014-Nov-21 19:33N 37°46' E 025°44'11212.4
2014-Nov-21 10:33N 39°38' E 025°45'1312.6
2014-Nov-21 09:32N 39°51' E 025°46'  
2014-Nov-18 19:13N 38°49' E 025°44'811.2
2014-Nov-18 18:30N 38°41' E 025°44'1111.5
2014-Nov-18 17:34N 38°31' E 025°43'1211.7
2014-Nov-18 16:33N 38°19' E 025°43'1211.9
2014-Nov-18 15:33N 38°07' E 025°43'1211.9
2014-Nov-18 14:33N 37°55' E 025°44'1110.8
2014-Nov-18 13:33N 37°44' E 025°44'1111.1
2014-Nov-18 12:31N 37°33' E 025°43'1111.3
2014-Nov-18 11:34N 37°22' E 025°43'1110.7
2014-Nov-18 10:33N 37°19' E 025°30'1111.3
2014-Nov-18 09:33N 37°18' E 025°16'1111.2
2014-Nov-18 08:33N 37°16' E 025°02'1111.4
2014-Nov-18 07:34N 37°12' E 024°49'1211.6
2014-Nov-18 06:33N 37°05' E 024°36'1111.5
2014-Nov-18 05:34N 36°60' E 024°24'1211.6
2014-Nov-18 04:33N 36°54' E 024°11'1211.8
2014-Nov-18 03:33N 36°46' E 023°60'1111.2
2014-Nov-18 02:33N 36°38' E 023°50'1110.7
2014-Nov-18 01:33N 36°30' E 023°41'1110.7
2014-Nov-18 00:33N 36°22' E 023°32'  

Dump ship's entire track history